sensor_id;sensor_type;location;lat;lon;timestamp;P1;durP1;ratioP1;P2;durP2;ratioP2
26594;SDS011;14238;49.496;8.154;2022-12-10T00:01:03;19.30;;;15.03;;
26594;SDS011;14238;49.496;8.154;2022-12-10T00:03:32;19.87;;;14.83;;
26594;SDS011;14238;49.496;8.154;2022-12-10T00:05:59;19.90;;;16.37;;
26594;SDS011;14238;49.496;8.154;2022-12-10T00:08:26;16.87;;;14.60;;
26594;SDS011;14238;49.496;8.154;2022-12-10T00:10:51;19.83;;;15.13;;
26594;SDS011;14238;49.496;8.154;2022-12-10T00:13:17;18.50;;;15.63;;
26594;SDS011;14238;49.496;8.154;2022-12-10T00:15:42;16.70;;;14.83;;
26594;SDS011;14238;49.496;8.154;2022-12-10T00:18:08;19.27;;;14.90;;
26594;SDS011;14238;49.496;8.154;2022-12-10T00:20:35;19.87;;;16.13;;
26594;SDS011;14238;49.496;8.154;2022-12-10T00:23:02;17.70;;;14.60;;
26594;SDS011;14238;49.496;8.154;2022-12-10T00:25:28;17.83;;;15.23;;
26594;SDS011;14238;49.496;8.154;2022-12-10T00:27:53;17.60;;;14.33;;
26594;SDS011;14238;49.496;8.154;2022-12-10T00:30:19;21.47;;;14.87;;
26594;SDS011;14238;49.496;8.154;2022-12-10T00:32:45;19.60;;;15.27;;
26594;SDS011;14238;49.496;8.154;2022-12-10T00:35:10;18.70;;;14.97;;
26594;SDS011;14238;49.496;8.154;2022-12-10T00:37:36;19.70;;;15.77;;
26594;SDS011;14238;49.496;8.154;2022-12-10T00:40:02;19.70;;;15.30;;
26594;SDS011;14238;49.496;8.154;2022-12-10T00:42:28;18.90;;;15.57;;
26594;SDS011;14238;49.496;8.154;2022-12-10T00:44:53;19.60;;;15.50;;
26594;SDS011;14238;49.496;8.154;2022-12-10T00:47:19;21.17;;;17.00;;
26594;SDS011;14238;49.496;8.154;2022-12-10T00:49:44;19.63;;;15.83;;
26594;SDS011;14238;49.496;8.154;2022-12-10T00:52:09;18.20;;;15.20;;
26594;SDS011;14238;49.496;8.154;2022-12-10T00:54:35;22.90;;;17.03;;
26594;SDS011;14238;49.496;8.154;2022-12-10T00:57:01;21.30;;;16.93;;
26594;SDS011;14238;49.496;8.154;2022-12-10T00:59:26;19.80;;;15.23;;
26594;SDS011;14238;49.496;8.154;2022-12-10T01:01:52;20.27;;;16.00;;
26594;SDS011;14238;49.496;8.154;2022-12-10T01:04:17;22.33;;;16.80;;
26594;SDS011;14238;49.496;8.154;2022-12-10T01:06:52;21.20;;;16.00;;
26594;SDS011;14238;49.496;8.154;2022-12-10T01:09:28;19.70;;;14.83;;
26594;SDS011;14238;49.496;8.154;2022-12-10T01:11:55;18.40;;;14.17;;
26594;SDS011;14238;49.496;8.154;2022-12-10T01:14:27;22.50;;;15.50;;
26594;SDS011;14238;49.496;8.154;2022-12-10T01:16:55;18.57;;;14.60;;
26594;SDS011;14238;49.496;8.154;2022-12-10T01:19:22;18.87;;;16.00;;
26594;SDS011;14238;49.496;8.154;2022-12-10T01:21:52;21.10;;;15.70;;
26594;SDS011;14238;49.496;8.154;2022-12-10T01:24:19;17.30;;;14.60;;
26594;SDS011;14238;49.496;8.154;2022-12-10T01:26:45;20.80;;;15.60;;
26594;SDS011;14238;49.496;8.154;2022-12-10T01:29:11;19.30;;;15.40;;
26594;SDS011;14238;49.496;8.154;2022-12-10T01:31:37;19.70;;;15.00;;
26594;SDS011;14238;49.496;8.154;2022-12-10T01:34:03;22.03;;;15.50;;
26594;SDS011;14238;49.496;8.154;2022-12-10T01:36:40;21.60;;;16.50;;
26594;SDS011;14238;49.496;8.154;2022-12-10T01:39:08;21.23;;;15.70;;
26594;SDS011;14238;49.496;8.154;2022-12-10T01:41:36;18.60;;;15.73;;
26594;SDS011;14238;49.496;8.154;2022-12-10T01:46:33;20.77;;;16.73;;
26594;SDS011;14238;49.496;8.154;2022-12-10T01:49:01;20.93;;;15.43;;
26594;SDS011;14238;49.496;8.154;2022-12-10T01:51:32;21.33;;;16.37;;
26594;SDS011;14238;49.496;8.154;2022-12-10T01:54:00;20.30;;;15.57;;
26594;SDS011;14238;49.496;8.154;2022-12-10T01:56:35;22.20;;;16.60;;
26594;SDS011;14238;49.496;8.154;2022-12-10T01:59:03;19.63;;;14.97;;
26594;SDS011;14238;49.496;8.154;2022-12-10T02:01:37;20.33;;;15.87;;
26594;SDS011;14238;49.496;8.154;2022-12-10T02:07:26;19.00;;;15.30;;
26594;SDS011;14238;49.496;8.154;2022-12-10T02:10:22;18.17;;;14.13;;
26594;SDS011;14238;49.496;8.154;2022-12-10T02:13:10;21.67;;;16.37;;
26594;SDS011;14238;49.496;8.154;2022-12-10T02:15:41;18.67;;;14.67;;
26594;SDS011;14238;49.496;8.154;2022-12-10T02:20:56;19.23;;;15.63;;
26594;SDS011;14238;49.496;8.154;2022-12-10T02:23:28;19.43;;;15.90;;
26594;SDS011;14238;49.496;8.154;2022-12-10T02:26:12;19.00;;;14.87;;
26594;SDS011;14238;49.496;8.154;2022-12-10T02:31:44;19.40;;;14.60;;
26594;SDS011;14238;49.496;8.154;2022-12-10T02:34:14;21.07;;;14.70;;
26594;SDS011;14238;49.496;8.154;2022-12-10T02:36:42;18.53;;;14.50;;
26594;SDS011;14238;49.496;8.154;2022-12-10T02:39:12;21.47;;;15.60;;
26594;SDS011;14238;49.496;8.154;2022-12-10T02:41:43;21.67;;;16.07;;
26594;SDS011;14238;49.496;8.154;2022-12-10T02:44:13;19.93;;;15.73;;
26594;SDS011;14238;49.496;8.154;2022-12-10T02:46:41;22.53;;;16.37;;
26594;SDS011;14238;49.496;8.154;2022-12-10T02:49:09;19.47;;;15.50;;
26594;SDS011;14238;49.496;8.154;2022-12-10T02:51:38;19.37;;;14.20;;
26594;SDS011;14238;49.496;8.154;2022-12-10T02:54:05;21.70;;;16.13;;
26594;SDS011;14238;49.496;8.154;2022-12-10T02:56:52;22.87;;;16.87;;
26594;SDS011;14238;49.496;8.154;2022-12-10T03:04:53;21.67;;;17.07;;
26594;SDS011;14238;49.496;8.154;2022-12-10T03:07:33;22.40;;;16.27;;
26594;SDS011;14238;49.496;8.154;2022-12-10T03:10:03;22.67;;;16.17;;
26594;SDS011;14238;49.496;8.154;2022-12-10T03:12:58;21.10;;;16.30;;
26594;SDS011;14238;49.496;8.154;2022-12-10T03:15:26;22.40;;;16.10;;
26594;SDS011;14238;49.496;8.154;2022-12-10T03:17:54;22.97;;;17.27;;
26594;SDS011;14238;49.496;8.154;2022-12-10T03:20:21;20.00;;;15.63;;
26594;SDS011;14238;49.496;8.154;2022-12-10T03:22:49;21.60;;;16.37;;
26594;SDS011;14238;49.496;8.154;2022-12-10T03:25:16;22.07;;;15.97;;
26594;SDS011;14238;49.496;8.154;2022-12-10T03:27:47;21.03;;;16.30;;
26594;SDS011;14238;49.496;8.154;2022-12-10T03:30:16;21.83;;;16.83;;
26594;SDS011;14238;49.496;8.154;2022-12-10T03:32:42;21.77;;;17.07;;
26594;SDS011;14238;49.496;8.154;2022-12-10T03:35:09;21.10;;;16.57;;
26594;SDS011;14238;49.496;8.154;2022-12-10T03:37:35;22.83;;;16.77;;
26594;SDS011;14238;49.496;8.154;2022-12-10T03:40:02;22.13;;;17.30;;
26594;SDS011;14238;49.496;8.154;2022-12-10T03:42:29;24.23;;;17.70;;
26594;SDS011;14238;49.496;8.154;2022-12-10T03:44:55;23.57;;;17.30;;
26594;SDS011;14238;49.496;8.154;2022-12-10T03:47:21;21.73;;;16.70;;
26594;SDS011;14238;49.496;8.154;2022-12-10T03:49:47;24.00;;;16.80;;
26594;SDS011;14238;49.496;8.154;2022-12-10T03:52:13;21.73;;;16.93;;
26594;SDS011;14238;49.496;8.154;2022-12-10T03:54:38;23.20;;;17.77;;
26594;SDS011;14238;49.496;8.154;2022-12-10T03:57:04;19.00;;;14.80;;
26594;SDS011;14238;49.496;8.154;2022-12-10T03:59:30;21.67;;;17.70;;
26594;SDS011;14238;49.496;8.154;2022-12-10T04:01:55;22.30;;;15.90;;
26594;SDS011;14238;49.496;8.154;2022-12-10T04:04:21;22.60;;;16.50;;
26594;SDS011;14238;49.496;8.154;2022-12-10T04:06:46;19.50;;;16.33;;
26594;SDS011;14238;49.496;8.154;2022-12-10T04:09:13;21.50;;;16.23;;
26594;SDS011;14238;49.496;8.154;2022-12-10T04:11:40;21.03;;;16.20;;
26594;SDS011;14238;49.496;8.154;2022-12-10T04:14:05;22.97;;;17.50;;
26594;SDS011;14238;49.496;8.154;2022-12-10T04:16:51;21.50;;;14.93;;
26594;SDS011;14238;49.496;8.154;2022-12-10T04:19:17;18.57;;;15.30;;
26594;SDS011;14238;49.496;8.154;2022-12-10T04:21:43;18.83;;;15.33;;
26594;SDS011;14238;49.496;8.154;2022-12-10T04:24:29;19.00;;;15.40;;
26594;SDS011;14238;49.496;8.154;2022-12-10T04:27:17;19.80;;;15.57;;
26594;SDS011;14238;49.496;8.154;2022-12-10T04:29:48;19.80;;;14.93;;
26594;SDS011;14238;49.496;8.154;2022-12-10T04:32:14;18.30;;;15.13;;
26594;SDS011;14238;49.496;8.154;2022-12-10T04:34:40;19.93;;;15.17;;
26594;SDS011;14238;49.496;8.154;2022-12-10T04:37:06;20.40;;;16.07;;
26594;SDS011;14238;49.496;8.154;2022-12-10T04:39:32;20.33;;;14.87;;
26594;SDS011;14238;49.496;8.154;2022-12-10T04:41:58;18.73;;;14.60;;
26594;SDS011;14238;49.496;8.154;2022-12-10T04:44:25;17.80;;;13.80;;
26594;SDS011;14238;49.496;8.154;2022-12-10T04:46:50;19.03;;;15.20;;
26594;SDS011;14238;49.496;8.154;2022-12-10T04:49:16;18.47;;;13.33;;
26594;SDS011;14238;49.496;8.154;2022-12-10T04:51:42;18.03;;;14.60;;
26594;SDS011;14238;49.496;8.154;2022-12-10T04:54:07;16.10;;;12.20;;
26594;SDS011;14238;49.496;8.154;2022-12-10T04:56:33;16.07;;;13.57;;
26594;SDS011;14238;49.496;8.154;2022-12-10T04:58:59;20.47;;;14.43;;
26594;SDS011;14238;49.496;8.154;2022-12-10T05:01:26;20.30;;;15.27;;
26594;SDS011;14238;49.496;8.154;2022-12-10T05:03:52;14.97;;;12.80;;
26594;SDS011;14238;49.496;8.154;2022-12-10T05:06:18;16.30;;;13.13;;
26594;SDS011;14238;49.496;8.154;2022-12-10T05:08:44;17.50;;;13.57;;
26594;SDS011;14238;49.496;8.154;2022-12-10T05:11:11;16.57;;;13.10;;
26594;SDS011;14238;49.496;8.154;2022-12-10T05:13:41;17.80;;;13.70;;
26594;SDS011;14238;49.496;8.154;2022-12-10T05:16:08;17.20;;;13.77;;
26594;SDS011;14238;49.496;8.154;2022-12-10T05:18:35;18.20;;;13.77;;
26594;SDS011;14238;49.496;8.154;2022-12-10T05:21:01;19.70;;;14.23;;
26594;SDS011;14238;49.496;8.154;2022-12-10T05:23:28;16.63;;;13.37;;
26594;SDS011;14238;49.496;8.154;2022-12-10T05:25:57;20.17;;;14.50;;
26594;SDS011;14238;49.496;8.154;2022-12-10T05:28:26;16.43;;;13.43;;
26594;SDS011;14238;49.496;8.154;2022-12-10T05:30:52;16.77;;;13.60;;
26594;SDS011;14238;49.496;8.154;2022-12-10T05:33:18;18.27;;;13.50;;
26594;SDS011;14238;49.496;8.154;2022-12-10T05:35:50;15.33;;;12.17;;
26594;SDS011;14238;49.496;8.154;2022-12-10T05:38:26;18.70;;;14.30;;
26594;SDS011;14238;49.496;8.154;2022-12-10T05:40:53;16.67;;;13.57;;
26594;SDS011;14238;49.496;8.154;2022-12-10T05:43:19;19.73;;;14.43;;
26594;SDS011;14238;49.496;8.154;2022-12-10T05:45:45;17.93;;;13.43;;
26594;SDS011;14238;49.496;8.154;2022-12-10T05:48:12;17.00;;;13.40;;
26594;SDS011;14238;49.496;8.154;2022-12-10T05:50:39;16.17;;;13.37;;
26594;SDS011;14238;49.496;8.154;2022-12-10T05:53:05;15.90;;;13.07;;
26594;SDS011;14238;49.496;8.154;2022-12-10T05:55:30;14.90;;;13.07;;
26594;SDS011;14238;49.496;8.154;2022-12-10T05:57:58;17.90;;;13.80;;
26594;SDS011;14238;49.496;8.154;2022-12-10T06:00:24;15.93;;;12.20;;
26594;SDS011;14238;49.496;8.154;2022-12-10T06:02:50;17.40;;;13.60;;
26594;SDS011;14238;49.496;8.154;2022-12-10T06:05:16;15.80;;;12.53;;
26594;SDS011;14238;49.496;8.154;2022-12-10T06:07:42;16.43;;;13.60;;
26594;SDS011;14238;49.496;8.154;2022-12-10T06:10:08;17.53;;;12.83;;
26594;SDS011;14238;49.496;8.154;2022-12-10T06:12:34;15.10;;;12.70;;
26594;SDS011;14238;49.496;8.154;2022-12-10T06:14:59;15.30;;;12.20;;
26594;SDS011;14238;49.496;8.154;2022-12-10T06:17:25;15.50;;;12.93;;
26594;SDS011;14238;49.496;8.154;2022-12-10T06:19:50;14.70;;;12.30;;
26594;SDS011;14238;49.496;8.154;2022-12-10T06:22:16;13.60;;;12.10;;
26594;SDS011;14238;49.496;8.154;2022-12-10T06:24:42;18.93;;;13.10;;
26594;SDS011;14238;49.496;8.154;2022-12-10T06:27:07;18.20;;;14.70;;
26594;SDS011;14238;49.496;8.154;2022-12-10T06:29:33;17.20;;;12.93;;
26594;SDS011;14238;49.496;8.154;2022-12-10T06:31:58;16.90;;;14.10;;
26594;SDS011;14238;49.496;8.154;2022-12-10T06:34:24;16.20;;;13.30;;
26594;SDS011;14238;49.496;8.154;2022-12-10T06:36:49;16.57;;;13.23;;
26594;SDS011;14238;49.496;8.154;2022-12-10T06:39:15;15.73;;;12.87;;
26594;SDS011;14238;49.496;8.154;2022-12-10T06:41:40;19.07;;;13.80;;
26594;SDS011;14238;49.496;8.154;2022-12-10T06:44:08;17.37;;;13.37;;
26594;SDS011;14238;49.496;8.154;2022-12-10T06:46:35;16.07;;;13.00;;
26594;SDS011;14238;49.496;8.154;2022-12-10T06:49:00;18.33;;;14.53;;
26594;SDS011;14238;49.496;8.154;2022-12-10T06:51:26;16.50;;;13.07;;
26594;SDS011;14238;49.496;8.154;2022-12-10T06:53:52;18.30;;;13.50;;
26594;SDS011;14238;49.496;8.154;2022-12-10T06:56:18;16.40;;;13.27;;
26594;SDS011;14238;49.496;8.154;2022-12-10T06:58:44;17.10;;;12.30;;
26594;SDS011;14238;49.496;8.154;2022-12-10T07:01:15;19.03;;;12.50;;
26594;SDS011;14238;49.496;8.154;2022-12-10T07:03:49;16.67;;;13.37;;
26594;SDS011;14238;49.496;8.154;2022-12-10T07:06:16;15.17;;;13.57;;
26594;SDS011;14238;49.496;8.154;2022-12-10T07:08:42;16.50;;;12.80;;
26594;SDS011;14238;49.496;8.154;2022-12-10T07:11:09;19.23;;;13.87;;
26594;SDS011;14238;49.496;8.154;2022-12-10T07:13:37;17.30;;;13.67;;
26594;SDS011;14238;49.496;8.154;2022-12-10T07:16:03;14.53;;;12.67;;
26594;SDS011;14238;49.496;8.154;2022-12-10T07:18:36;16.00;;;12.50;;
26594;SDS011;14238;49.496;8.154;2022-12-10T07:21:02;14.57;;;12.07;;
26594;SDS011;14238;49.496;8.154;2022-12-10T07:23:51;14.70;;;12.33;;
26594;SDS011;14238;49.496;8.154;2022-12-10T07:26:18;14.40;;;12.00;;
26594;SDS011;14238;49.496;8.154;2022-12-10T07:28:44;15.37;;;13.67;;
26594;SDS011;14238;49.496;8.154;2022-12-10T07:31:10;16.67;;;13.50;;
26594;SDS011;14238;49.496;8.154;2022-12-10T07:33:36;16.10;;;12.67;;
26594;SDS011;14238;49.496;8.154;2022-12-10T07:36:08;16.40;;;13.30;;
26594;SDS011;14238;49.496;8.154;2022-12-10T07:38:36;15.17;;;12.23;;
26594;SDS011;14238;49.496;8.154;2022-12-10T07:41:03;15.03;;;12.30;;
26594;SDS011;14238;49.496;8.154;2022-12-10T07:43:29;16.57;;;11.80;;
26594;SDS011;14238;49.496;8.154;2022-12-10T07:45:54;15.47;;;12.90;;
26594;SDS011;14238;49.496;8.154;2022-12-10T07:48:20;14.97;;;12.13;;
26594;SDS011;14238;49.496;8.154;2022-12-10T07:50:46;13.53;;;12.20;;
26594;SDS011;14238;49.496;8.154;2022-12-10T07:53:12;15.73;;;12.10;;
26594;SDS011;14238;49.496;8.154;2022-12-10T07:55:37;14.83;;;11.90;;
26594;SDS011;14238;49.496;8.154;2022-12-10T07:58:03;16.60;;;12.30;;
26594;SDS011;14238;49.496;8.154;2022-12-10T08:00:28;14.63;;;11.93;;
26594;SDS011;14238;49.496;8.154;2022-12-10T08:02:54;14.70;;;11.77;;
26594;SDS011;14238;49.496;8.154;2022-12-10T08:05:19;13.03;;;11.43;;
26594;SDS011;14238;49.496;8.154;2022-12-10T08:07:45;13.23;;;11.60;;
26594;SDS011;14238;49.496;8.154;2022-12-10T08:10:10;12.73;;;11.37;;
26594;SDS011;14238;49.496;8.154;2022-12-10T08:12:36;12.60;;;11.23;;
26594;SDS011;14238;49.496;8.154;2022-12-10T08:15:02;14.53;;;12.67;;
26594;SDS011;14238;49.496;8.154;2022-12-10T08:17:27;13.47;;;10.47;;
26594;SDS011;14238;49.496;8.154;2022-12-10T08:19:53;14.33;;;10.53;;
26594;SDS011;14238;49.496;8.154;2022-12-10T08:22:19;11.37;;;10.17;;
26594;SDS011;14238;49.496;8.154;2022-12-10T08:24:45;12.20;;;10.90;;
26594;SDS011;14238;49.496;8.154;2022-12-10T08:27:11;11.70;;;10.50;;
26594;SDS011;14238;49.496;8.154;2022-12-10T08:29:37;14.40;;;12.03;;
26594;SDS011;14238;49.496;8.154;2022-12-10T08:32:02;13.23;;;11.83;;
26594;SDS011;14238;49.496;8.154;2022-12-10T08:34:28;12.63;;;10.27;;
26594;SDS011;14238;49.496;8.154;2022-12-10T08:36:53;12.40;;;10.30;;
26594;SDS011;14238;49.496;8.154;2022-12-10T08:39:20;12.27;;;10.10;;
26594;SDS011;14238;49.496;8.154;2022-12-10T08:41:46;13.33;;;10.70;;
26594;SDS011;14238;49.496;8.154;2022-12-10T08:44:11;11.90;;;10.40;;
26594;SDS011;14238;49.496;8.154;2022-12-10T08:46:38;11.70;;;9.80;;
26594;SDS011;14238;49.496;8.154;2022-12-10T08:49:04;11.53;;;9.50;;
26594;SDS011;14238;49.496;8.154;2022-12-10T08:51:31;13.13;;;10.50;;
26594;SDS011;14238;49.496;8.154;2022-12-10T08:53:57;11.87;;;10.67;;
26594;SDS011;14238;49.496;8.154;2022-12-10T08:56:23;14.53;;;11.50;;
26594;SDS011;14238;49.496;8.154;2022-12-10T08:58:48;13.30;;;10.87;;
26594;SDS011;14238;49.496;8.154;2022-12-10T09:01:15;13.20;;;10.77;;
26594;SDS011;14238;49.496;8.154;2022-12-10T09:03:42;11.70;;;10.30;;
26594;SDS011;14238;49.496;8.154;2022-12-10T09:06:08;12.57;;;10.47;;
26594;SDS011;14238;49.496;8.154;2022-12-10T09:08:36;11.60;;;9.97;;
26594;SDS011;14238;49.496;8.154;2022-12-10T09:11:15;10.90;;;9.80;;
26594;SDS011;14238;49.496;8.154;2022-12-10T09:13:43;12.47;;;10.57;;
26594;SDS011;14238;49.496;8.154;2022-12-10T09:16:09;11.47;;;10.27;;
26594;SDS011;14238;49.496;8.154;2022-12-10T09:18:35;10.33;;;9.30;;
26594;SDS011;14238;49.496;8.154;2022-12-10T09:21:08;12.67;;;10.50;;
26594;SDS011;14238;49.496;8.154;2022-12-10T09:23:35;11.70;;;10.43;;
26594;SDS011;14238;49.496;8.154;2022-12-10T09:26:01;9.63;;;8.63;;
26594;SDS011;14238;49.496;8.154;2022-12-10T09:28:29;13.17;;;9.93;;
26594;SDS011;14238;49.496;8.154;2022-12-10T09:30:59;11.27;;;9.93;;
26594;SDS011;14238;49.496;8.154;2022-12-10T09:33:25;10.33;;;9.23;;
26594;SDS011;14238;49.496;8.154;2022-12-10T09:35:52;10.97;;;9.57;;
26594;SDS011;14238;49.496;8.154;2022-12-10T09:38:18;11.80;;;9.90;;
26594;SDS011;14238;49.496;8.154;2022-12-10T09:40:51;10.17;;;9.07;;
26594;SDS011;14238;49.496;8.154;2022-12-10T09:43:23;9.53;;;8.53;;
26594;SDS011;14238;49.496;8.154;2022-12-10T09:48:51;11.40;;;9.83;;
26594;SDS011;14238;49.496;8.154;2022-12-10T09:51:28;11.00;;;9.20;;
26594;SDS011;14238;49.496;8.154;2022-12-10T09:53:57;10.23;;;9.17;;
26594;SDS011;14238;49.496;8.154;2022-12-10T09:56:25;9.77;;;8.57;;
26594;SDS011;14238;49.496;8.154;2022-12-10T09:58:56;9.90;;;8.87;;
26594;SDS011;14238;49.496;8.154;2022-12-10T10:01:24;11.40;;;9.80;;
26594;SDS011;14238;49.496;8.154;2022-12-10T10:03:54;10.33;;;9.30;;
26594;SDS011;14238;49.496;8.154;2022-12-10T10:06:20;10.23;;;9.20;;
26594;SDS011;14238;49.496;8.154;2022-12-10T10:08:50;10.53;;;9.53;;
26594;SDS011;14238;49.496;8.154;2022-12-10T10:11:19;12.80;;;9.50;;
26594;SDS011;14238;49.496;8.154;2022-12-10T10:13:53;10.33;;;9.23;;
26594;SDS011;14238;49.496;8.154;2022-12-10T10:16:37;11.23;;;10.03;;
26594;SDS011;14238;49.496;8.154;2022-12-10T10:19:14;11.57;;;9.77;;
26594;SDS011;14238;49.496;8.154;2022-12-10T10:21:43;11.67;;;8.83;;
26594;SDS011;14238;49.496;8.154;2022-12-10T10:24:13;11.20;;;10.07;;
26594;SDS011;14238;49.496;8.154;2022-12-10T10:26:41;9.63;;;8.53;;
26594;SDS011;14238;49.496;8.154;2022-12-10T10:29:08;10.50;;;8.70;;
26594;SDS011;14238;49.496;8.154;2022-12-10T10:31:38;10.77;;;9.00;;
26594;SDS011;14238;49.496;8.154;2022-12-10T10:34:06;9.40;;;8.40;;
26594;SDS011;14238;49.496;8.154;2022-12-10T10:36:45;11.00;;;8.40;;
26594;SDS011;14238;49.496;8.154;2022-12-10T10:39:23;10.10;;;9.10;;
26594;SDS011;14238;49.496;8.154;2022-12-10T10:41:53;8.80;;;7.90;;
26594;SDS011;14238;49.496;8.154;2022-12-10T10:44:22;9.80;;;8.80;;
26594;SDS011;14238;49.496;8.154;2022-12-10T10:46:51;9.73;;;8.83;;
26594;SDS011;14238;49.496;8.154;2022-12-10T10:49:26;9.83;;;8.70;;
26594;SDS011;14238;49.496;8.154;2022-12-10T10:51:55;8.93;;;8.10;;
26594;SDS011;14238;49.496;8.154;2022-12-10T10:54:37;10.13;;;9.13;;
26594;SDS011;14238;49.496;8.154;2022-12-10T10:57:27;10.10;;;9.20;;
26594;SDS011;14238;49.496;8.154;2022-12-10T11:00:18;8.80;;;8.00;;
26594;SDS011;14238;49.496;8.154;2022-12-10T11:02:47;9.60;;;8.67;;
26594;SDS011;14238;49.496;8.154;2022-12-10T11:05:17;9.97;;;9.07;;
26594;SDS011;14238;49.496;8.154;2022-12-10T11:07:49;10.57;;;9.50;;
26594;SDS011;14238;49.496;8.154;2022-12-10T11:10:26;9.43;;;8.30;;
26594;SDS011;14238;49.496;8.154;2022-12-10T11:12:54;10.03;;;9.03;;
26594;SDS011;14238;49.496;8.154;2022-12-10T11:17:48;11.40;;;8.43;;
26594;SDS011;14238;49.496;8.154;2022-12-10T11:20:17;9.27;;;8.37;;
26594;SDS011;14238;49.496;8.154;2022-12-10T11:22:51;10.17;;;9.17;;
26594;SDS011;14238;49.496;8.154;2022-12-10T11:30:42;9.07;;;8.17;;
26594;SDS011;14238;49.496;8.154;2022-12-10T11:38:44;8.83;;;8.03;;
26594;SDS011;14238;49.496;8.154;2022-12-10T11:41:18;13.57;;;8.83;;
26594;SDS011;14238;49.496;8.154;2022-12-10T11:43:56;9.60;;;8.70;;
26594;SDS011;14238;49.496;8.154;2022-12-10T11:47:08;10.93;;;8.63;;
26594;SDS011;14238;49.496;8.154;2022-12-10T11:50:09;8.37;;;7.57;;
26594;SDS011;14238;49.496;8.154;2022-12-10T11:55:35;10.17;;;8.73;;
26594;SDS011;14238;49.496;8.154;2022-12-10T11:58:32;10.30;;;9.00;;
26594;SDS011;14238;49.496;8.154;2022-12-10T12:01:13;8.53;;;7.73;;
26594;SDS011;14238;49.496;8.154;2022-12-10T12:06:42;9.37;;;8.47;;
26594;SDS011;14238;49.496;8.154;2022-12-10T12:15:02;7.00;;;6.40;;
26594;SDS011;14238;49.496;8.154;2022-12-10T12:17:40;6.20;;;5.60;;
26594;SDS011;14238;49.496;8.154;2022-12-10T12:22:52;5.90;;;5.30;;
26594;SDS011;14238;49.496;8.154;2022-12-10T12:25:31;6.67;;;6.00;;
26594;SDS011;14238;49.496;8.154;2022-12-10T12:28:05;6.70;;;6.00;;
26594;SDS011;14238;49.496;8.154;2022-12-10T12:30:47;6.27;;;5.67;;
26594;SDS011;14238;49.496;8.154;2022-12-10T12:33:24;6.30;;;5.70;;
26594;SDS011;14238;49.496;8.154;2022-12-10T12:35:58;6.13;;;5.53;;
26594;SDS011;14238;49.496;8.154;2022-12-10T12:38:46;6.50;;;5.90;;
26594;SDS011;14238;49.496;8.154;2022-12-10T12:44:15;7.60;;;6.77;;
26594;SDS011;14238;49.496;8.154;2022-12-10T12:46:49;7.60;;;6.90;;
26594;SDS011;14238;49.496;8.154;2022-12-10T12:49:23;7.93;;;7.13;;
26594;SDS011;14238;49.496;8.154;2022-12-10T12:52:04;9.17;;;8.27;;
26594;SDS011;14238;49.496;8.154;2022-12-10T12:54:49;8.50;;;7.60;;
26594;SDS011;14238;49.496;8.154;2022-12-10T12:57:21;6.67;;;6.03;;
26594;SDS011;14238;49.496;8.154;2022-12-10T13:10:45;9.23;;;8.37;;
26594;SDS011;14238;49.496;8.154;2022-12-10T13:21:59;8.90;;;8.10;;
26594;SDS011;14238;49.496;8.154;2022-12-10T13:27:03;9.60;;;8.50;;
26594;SDS011;14238;49.496;8.154;2022-12-10T13:29:46;9.93;;;8.93;;
26594;SDS011;14238;49.496;8.154;2022-12-10T13:32:19;9.57;;;8.53;;
26594;SDS011;14238;49.496;8.154;2022-12-10T13:37:33;10.97;;;9.67;;
26594;SDS011;14238;49.496;8.154;2022-12-10T13:42:40;10.00;;;9.00;;
26594;SDS011;14238;49.496;8.154;2022-12-10T13:45:30;9.50;;;8.60;;
26594;SDS011;14238;49.496;8.154;2022-12-10T13:48:15;10.70;;;9.00;;
26594;SDS011;14238;49.496;8.154;2022-12-10T13:50:52;12.43;;;9.60;;
26594;SDS011;14238;49.496;8.154;2022-12-10T13:53:33;13.10;;;10.17;;
26594;SDS011;14238;49.496;8.154;2022-12-10T14:01:54;10.13;;;9.13;;
26594;SDS011;14238;49.496;8.154;2022-12-10T14:07:32;12.43;;;10.50;;
26594;SDS011;14238;49.496;8.154;2022-12-10T14:09:58;10.37;;;9.27;;
26594;SDS011;14238;49.496;8.154;2022-12-10T14:12:30;11.17;;;9.97;;
26594;SDS011;14238;49.496;8.154;2022-12-10T14:15:01;11.83;;;10.43;;
26594;SDS011;14238;49.496;8.154;2022-12-10T14:17:33;12.93;;;10.80;;
26594;SDS011;14238;49.496;8.154;2022-12-10T14:20:03;11.47;;;10.37;;
26594;SDS011;14238;49.496;8.154;2022-12-10T14:22:34;11.33;;;10.10;;
26594;SDS011;14238;49.496;8.154;2022-12-10T14:25:03;9.70;;;8.73;;
26594;SDS011;14238;49.496;8.154;2022-12-10T14:27:32;14.80;;;10.73;;
26594;SDS011;14238;49.496;8.154;2022-12-10T14:29:59;11.47;;;9.20;;
26594;SDS011;14238;49.496;8.154;2022-12-10T14:32:29;10.73;;;9.63;;
26594;SDS011;14238;49.496;8.154;2022-12-10T14:34:59;10.50;;;9.00;;
26594;SDS011;14238;49.496;8.154;2022-12-10T14:37:27;10.10;;;9.10;;
26594;SDS011;14238;49.496;8.154;2022-12-10T14:39:54;12.40;;;10.10;;
26594;SDS011;14238;49.496;8.154;2022-12-10T14:42:20;13.80;;;11.27;;
26594;SDS011;14238;49.496;8.154;2022-12-10T14:44:49;11.10;;;10.00;;
26594;SDS011;14238;49.496;8.154;2022-12-10T14:47:32;10.40;;;9.37;;
26594;SDS011;14238;49.496;8.154;2022-12-10T14:50:03;11.87;;;10.13;;
26594;SDS011;14238;49.496;8.154;2022-12-10T14:52:32;11.63;;;10.33;;
26594;SDS011;14238;49.496;8.154;2022-12-10T14:55:03;11.27;;;10.00;;
26594;SDS011;14238;49.496;8.154;2022-12-10T14:57:38;10.63;;;9.53;;
26594;SDS011;14238;49.496;8.154;2022-12-10T15:02:43;11.67;;;10.10;;
26594;SDS011;14238;49.496;8.154;2022-12-10T15:05:20;9.33;;;8.43;;
26594;SDS011;14238;49.496;8.154;2022-12-10T15:07:59;10.20;;;9.23;;
26594;SDS011;14238;49.496;8.154;2022-12-10T15:10:29;10.10;;;9.10;;
26594;SDS011;14238;49.496;8.154;2022-12-10T15:13:01;10.90;;;9.80;;
26594;SDS011;14238;49.496;8.154;2022-12-10T15:15:38;10.80;;;9.73;;
26594;SDS011;14238;49.496;8.154;2022-12-10T15:23:31;10.60;;;9.20;;
26594;SDS011;14238;49.496;8.154;2022-12-10T15:28:34;9.30;;;8.40;;
26594;SDS011;14238;49.496;8.154;2022-12-10T15:33:50;9.37;;;8.40;;
26594;SDS011;14238;49.496;8.154;2022-12-10T15:36:18;10.73;;;9.50;;
26594;SDS011;14238;49.496;8.154;2022-12-10T15:39:48;10.40;;;9.20;;
26594;SDS011;14238;49.496;8.154;2022-12-10T15:41:59;12.07;;;10.17;;
26594;SDS011;14238;49.496;8.154;2022-12-10T15:44:36;11.53;;;9.97;;
26594;SDS011;14238;49.496;8.154;2022-12-10T15:47:19;12.67;;;10.43;;
26594;SDS011;14238;49.496;8.154;2022-12-10T15:49:50;11.13;;;9.37;;
26594;SDS011;14238;49.496;8.154;2022-12-10T15:52:21;11.07;;;9.90;;
26594;SDS011;14238;49.496;8.154;2022-12-10T15:54:57;11.40;;;10.23;;
26594;SDS011;14238;49.496;8.154;2022-12-10T15:59:57;16.80;;;13.77;;
26594;SDS011;14238;49.496;8.154;2022-12-10T16:07:47;13.10;;;10.30;;
26594;SDS011;14238;49.496;8.154;2022-12-10T16:10:16;16.20;;;11.23;;
26594;SDS011;14238;49.496;8.154;2022-12-10T16:12:43;15.57;;;12.03;;
26594;SDS011;14238;49.496;8.154;2022-12-10T16:15:14;17.93;;;12.37;;
26594;SDS011;14238;49.496;8.154;2022-12-10T16:17:43;10.60;;;8.70;;
26594;SDS011;14238;49.496;8.154;2022-12-10T16:22:44;11.50;;;9.80;;
26594;SDS011;14238;49.496;8.154;2022-12-10T16:25:10;12.53;;;9.43;;
26594;SDS011;14238;49.496;8.154;2022-12-10T16:27:35;9.80;;;8.43;;
26594;SDS011;14238;49.496;8.154;2022-12-10T16:30:24;12.57;;;9.90;;
26594;SDS011;14238;49.496;8.154;2022-12-10T16:32:54;9.90;;;7.97;;
26594;SDS011;14238;49.496;8.154;2022-12-10T16:35:20;11.57;;;8.93;;